createdAt,value
2018-07-22T10:56:21.365Z,42.80
2018-07-22T10:58:49.645Z,42.10
2018-07-22T11:01:17.929Z,41.13
2018-07-22T11:03:46.247Z,38.31
2018-07-22T11:06:14.502Z,35.05
2018-07-22T11:08:43.828Z,32.38
2018-07-22T11:11:13.125Z,33.38
2018-07-22T11:13:41.406Z,32.76
2018-07-22T11:16:10.687Z,33.64
2018-07-22T11:18:39.017Z,32.92
2018-07-22T11:21:07.340Z,33.57
2018-07-22T11:23:35.677Z,35.59
2018-07-22T11:26:03.940Z,36.00
2018-07-22T11:28:32.405Z,35.32
2018-07-22T11:31:00.622Z,35.15
2018-07-22T11:33:28.894Z,34.23
2018-07-22T11:35:57.206Z,35.08
2018-07-22T11:38:25.434Z,34.40
2018-07-22T11:40:53.716Z,34.18
2018-07-22T11:43:23.966Z,33.28
2018-07-22T11:45:52.248Z,35.04
2018-07-22T11:48:20.541Z,34.69
2018-07-22T11:50:48.920Z,34.10
2018-07-22T11:53:17.096Z,33.30
2018-07-22T11:55:46.392Z,33.14
2018-07-22T11:58:14.650Z,32.18
2018-07-22T12:00:47.196Z,32.71
2018-07-22T12:03:15.941Z,34.09
2018-07-22T12:05:44.321Z,34.25
2018-07-22T12:08:12.569Z,33.65
2018-07-22T12:10:40.842Z,33.22
2018-07-22T12:13:09.222Z,34.44
2018-07-22T12:15:37.492Z,34.88
2018-07-22T12:18:05.779Z,34.46
2018-07-22T12:20:34.049Z,35.50
2018-07-22T12:23:02.326Z,36.29
2018-07-22T12:25:30.597Z,35.30
2018-07-22T12:27:58.847Z,33.67
2018-07-22T12:30:27.133Z,33.58
2018-07-22T12:32:55.385Z,35.20
2018-07-22T12:35:23.641Z,36.39
2018-07-22T12:37:51.909Z,36.40
2018-07-22T12:40:20.201Z,34.86
2018-07-22T12:42:53.277Z,34.67
2018-07-22T12:45:21.513Z,33.52
2018-07-22T12:47:49.831Z,34.23
2018-07-22T12:50:18.076Z,32.91
2018-07-22T12:52:46.363Z,32.78
2018-07-22T12:55:14.613Z,32.12
2018-07-22T12:57:42.885Z,31.51
2018-07-22T13:00:11.153Z,32.10
2018-07-22T13:02:39.433Z,32.20
2018-07-22T13:05:08.767Z,31.38
2018-07-22T13:07:37.049Z,29.89
2018-07-22T13:10:06.553Z,29.38
2018-07-22T13:12:34.938Z,31.23
2018-07-22T13:15:03.295Z,32.51
2018-07-22T13:17:31.616Z,32.54
2018-07-22T13:20:00.881Z,32.71
2018-07-22T13:22:29.433Z,33.20
2018-07-22T13:24:57.975Z,32.72
2018-07-22T13:27:26.579Z,32.29
2018-07-22T13:29:55.388Z,32.53
2018-07-22T13:32:23.665Z,32.95
2018-07-22T13:34:53.025Z,32.37
2018-07-22T13:37:21.405Z,32.28
2018-07-22T13:39:49.692Z,32.49
2018-07-22T13:42:18.265Z,31.66
2018-07-22T13:44:46.579Z,31.56
2018-07-22T13:47:14.875Z,30.23
2018-07-22T13:49:43.328Z,29.24
2018-07-22T13:52:11.589Z,29.16
2018-07-22T13:54:41.157Z,26.80
2018-07-22T13:57:09.722Z,23.90
2018-07-22T13:59:38.004Z,22.70
2018-07-22T14:02:06.681Z,21.18
2018-07-22T14:04:34.952Z,20.88
2018-07-22T14:07:03.214Z,19.90
2018-07-22T14:09:31.552Z,19.11
2018-07-22T14:11:59.883Z,16.18
2018-07-22T14:14:28.597Z,16.69
2018-07-22T14:16:56.857Z,15.95
2018-07-22T14:19:25.174Z,15.57
2018-07-22T14:21:53.430Z,14.04
2018-07-22T14:24:21.725Z,15.11
2018-07-22T14:26:51.021Z,16.70
2018-07-22T14:29:19.265Z,14.70
2018-07-22T14:31:47.562Z,14.62
2018-07-22T14:34:15.816Z,16.14
2018-07-22T14:36:45.129Z,16.69
2018-07-22T14:39:13.832Z,16.24
2018-07-22T14:41:42.744Z,15.73
2018-07-22T14:44:11.007Z,15.11
2018-07-22T14:46:39.308Z,14.28
2018-07-22T14:49:08.637Z,16.61
2018-07-22T14:51:36.913Z,17.29
2018-07-22T14:54:05.252Z,13.94
2018-07-22T14:56:33.536Z,14.55
2018-07-22T14:59:01.802Z,14.05
2018-07-22T15:01:30.201Z,15.61
2018-07-22T15:03:58.460Z,16.92
2018-07-22T15:06:26.781Z,17.64
2018-07-22T15:08:55.056Z,16.99
2018-07-22T15:11:23.354Z,16.58
2018-07-22T15:13:51.636Z,18.85
2018-07-22T15:16:19.957Z,18.57
2018-07-22T15:18:48.212Z,19.34
2018-07-22T15:21:16.469Z,19.04
2018-07-22T15:23:44.773Z,17.00
2018-07-22T15:26:13.041Z,17.63
2018-07-22T15:28:41.340Z,15.73
2018-07-22T15:31:09.630Z,13.15
2018-07-22T15:33:38.981Z,14.69
2018-07-22T15:36:07.233Z,17.53
2018-07-22T15:38:35.525Z,20.52
2018-07-22T15:41:03.863Z,20.84
2018-07-22T15:43:32.377Z,19.59
2018-07-22T15:46:00.646Z,20.23
2018-07-22T15:48:28.934Z,21.20
2018-07-22T15:50:57.188Z,26.05
2018-07-22T15:53:25.481Z,23.26
2018-07-22T15:55:53.827Z,24.37
2018-07-22T15:58:22.030Z,24.37
2018-07-22T16:00:50.517Z,22.18
2018-07-22T16:03:18.807Z,22.96
2018-07-22T16:05:47.073Z,22.12
2018-07-22T16:08:17.405Z,21.56
2018-07-22T16:10:45.677Z,25.56
2018-07-22T16:13:14.988Z,27.61
2018-07-22T16:15:44.385Z,26.73
2018-07-22T16:18:12.641Z,25.98
2018-07-22T16:20:41.006Z,23.54
2018-07-22T16:23:09.296Z,25.89
2018-07-22T16:28:36.507Z,25.53
2018-07-22T16:31:04.765Z,23.33
2018-07-22T16:33:33.098Z,20.98
2018-07-22T16:36:01.425Z,21.99
2018-07-22T16:38:29.736Z,24.70
2018-07-22T16:40:58.033Z,27.94
2018-07-22T16:43:26.285Z,33.39
2018-07-22T16:45:54.584Z,29.67
2018-07-22T16:48:23.884Z,26.41
2018-07-22T16:50:52.193Z,24.76
2018-07-22T16:53:20.695Z,25.89
2018-07-22T16:55:49.013Z,28.22
2018-07-22T16:58:17.277Z,29.33
2018-07-22T17:00:46.988Z,28.96
2018-07-22T17:03:15.317Z,26.25
2018-07-22T17:05:43.605Z,25.99
2018-07-22T17:08:11.957Z,23.83
2018-07-22T17:10:41.357Z,25.41
2018-07-22T17:13:09.681Z,26.80
2018-07-22T17:15:38.545Z,27.30
2018-07-22T17:18:06.813Z,29.60
2018-07-22T17:20:35.177Z,30.19
2018-07-22T17:23:03.592Z,29.82
2018-07-22T17:25:31.939Z,31.49
2018-07-22T17:28:00.252Z,31.12
2018-07-22T17:30:28.643Z,36.44
2018-07-22T17:32:56.910Z,39.72
2018-07-22T17:35:26.170Z,42.36
2018-07-22T17:37:54.469Z,44.08
2018-07-22T17:40:22.725Z,44.06
2018-07-22T17:42:51.030Z,46.35
2018-07-22T17:45:19.373Z,48.04
2018-07-22T17:47:47.677Z,48.37
2018-07-22T17:50:16.133Z,48.94
2018-07-22T17:52:44.432Z,49.44
2018-07-22T17:55:12.801Z,50.36
2018-07-22T17:57:41.165Z,50.53
2018-07-22T18:00:09.699Z,50.07
2018-07-22T18:02:40.661Z,49.90
2018-07-22T18:05:08.989Z,48.89
2018-07-22T18:07:37.340Z,48.80
2018-07-22T18:10:06.709Z,48.37
2018-07-22T18:12:35.126Z,48.74
2018-07-22T18:15:03.496Z,48.88
2018-07-22T18:17:31.757Z,49.38
2018-07-22T18:20:00.028Z,49.19
2018-07-22T18:22:28.316Z,48.97
2018-07-22T18:24:56.614Z,49.06
2018-07-22T18:27:24.848Z,49.54
2018-07-22T18:29:53.128Z,49.50
2018-07-22T18:32:21.436Z,50.06
2018-07-22T18:34:50.763Z,50.59
2018-07-22T18:37:19.156Z,50.68
2018-07-22T18:39:47.301Z,50.38
2018-07-22T18:42:15.589Z,51.08
2018-07-22T18:44:43.877Z,51.65
2018-07-22T18:47:13.133Z,51.41
2018-07-22T18:49:41.480Z,50.60
2018-07-22T18:52:09.715Z,50.79
2018-07-22T18:54:38.013Z,50.50
2018-07-22T18:57:07.266Z,51.10
2018-07-22T18:59:35.542Z,51.65
2018-07-22T19:02:03.825Z,52.38
2018-07-22T19:04:32.063Z,53.20
2018-07-22T19:07:00.344Z,54.11
2018-07-22T19:09:28.595Z,53.31
2018-07-22T19:11:57.889Z,54.74
2018-07-22T19:14:26.136Z,55.38
2018-07-22T19:16:54.402Z,56.15
2018-07-22T19:19:22.817Z,57.08
2018-07-22T19:21:51.109Z,56.90
2018-07-22T19:24:19.384Z,57.94
2018-07-22T19:26:47.674Z,57.76
2018-07-22T19:29:17.011Z,58.06
2018-07-22T19:31:45.285Z,57.84
2018-07-22T19:34:13.525Z,57.94
2018-07-22T19:36:41.806Z,57.80
2018-07-22T19:39:10.669Z,58.24
2018-07-22T19:41:40.058Z,58.12
2018-07-22T19:44:08.745Z,57.99
2018-07-22T19:46:37.215Z,57.74
2018-07-22T19:49:09.686Z,58.31
2018-07-22T19:51:38.157Z,59.01
2018-07-22T19:54:06.405Z,59.22
2018-07-22T19:56:34.705Z,59.35
2018-07-22T19:59:02.969Z,60.84
2018-07-22T20:01:32.949Z,60.69
2018-07-22T20:04:01.225Z,61.17
2018-07-22T20:06:29.489Z,62.11
2018-07-22T20:08:57.783Z,62.61
2018-07-22T20:11:27.017Z,62.79
2018-07-22T20:13:56.442Z,63.54
2018-07-22T20:16:24.705Z,63.15
2018-07-22T20:18:52.986Z,63.27
2018-07-22T20:21:21.228Z,63.36
2018-07-22T20:23:49.557Z,63.78
2018-07-22T20:26:17.805Z,63.72
2018-07-22T20:28:47.109Z,64.34
2018-07-22T20:31:16.388Z,65.81
2018-07-22T20:33:46.071Z,65.84
2018-07-22T20:36:14.489Z,65.46
2018-07-22T20:38:42.785Z,65.68
2018-07-22T20:41:11.074Z,65.38
2018-07-22T20:43:39.341Z,65.47
2018-07-22T20:46:08.580Z,66.45
2018-07-22T20:48:36.925Z,66.44
2018-07-22T20:51:05.245Z,66.99
2018-07-22T20:53:34.565Z,67.60
2018-07-22T20:56:02.873Z,67.54
2018-07-22T20:58:31.117Z,67.96
2018-07-22T21:01:00.382Z,67.96
2018-07-22T21:03:29.048Z,68.63
2018-07-22T21:05:57.325Z,69.34
2018-07-22T21:08:25.594Z,68.94
2018-07-22T21:10:53.893Z,69.51
2018-07-22T21:13:23.573Z,69.52
2018-07-22T21:15:52.077Z,69.78
2018-07-22T21:18:20.352Z,69.83
2018-07-22T21:20:48.649Z,70.29
2018-07-22T21:23:16.921Z,70.46
2018-07-22T21:25:45.236Z,70.68
2018-07-22T21:28:13.576Z,71.04
2018-07-22T21:30:41.877Z,71.33
2018-07-22T21:33:10.145Z,70.92
2018-07-22T21:35:38.436Z,71.51
2018-07-22T21:38:07.957Z,71.03
2018-07-22T21:40:36.228Z,71.01
2018-07-22T21:43:04.521Z,70.53
2018-07-22T21:45:32.813Z,70.78
2018-07-22T21:48:01.137Z,69.99
2018-07-22T21:50:29.405Z,71.33
2018-07-22T21:52:57.689Z,71.46
2018-07-22T21:55:25.964Z,71.61
2018-07-22T21:57:54.281Z,71.48
2018-07-22T22:00:31.637Z,72.08
2018-07-22T22:03:01.205Z,72.13
2018-07-22T22:05:29.481Z,72.65
2018-07-22T22:07:57.777Z,72.56
2018-07-22T22:10:26.517Z,72.45
2018-07-22T22:12:55.341Z,73.16
2018-07-22T22:15:29.429Z,73.66
2018-07-22T22:17:59.005Z,73.70
2018-07-22T22:20:27.837Z,73.16
2018-07-22T22:22:56.633Z,72.27
2018-07-22T22:25:26.019Z,72.50
2018-07-22T22:27:54.364Z,72.65
2018-07-22T22:30:22.673Z,72.21
2018-07-22T22:32:50.932Z,72.42
2018-07-22T22:35:20.234Z,72.79
2018-07-22T22:37:48.535Z,73.10
2018-07-22T22:40:16.931Z,73.41
2018-07-22T22:42:46.190Z,74.24
2018-07-22T22:45:15.229Z,73.48
2018-07-22T22:47:43.517Z,72.46
2018-07-22T22:50:11.839Z,72.70
2018-07-22T22:52:40.109Z,73.01
2018-07-22T22:55:08.426Z,73.64
2018-07-22T22:57:36.717Z,73.38
2018-07-22T23:00:06.714Z,73.04
2018-07-22T23:02:37.837Z,73.45
2018-07-22T23:05:08.008Z,73.92
2018-07-22T23:07:36.248Z,74.01
2018-07-22T23:10:05.409Z,73.41
2018-07-22T23:12:33.696Z,72.99
2018-07-22T23:15:02.012Z,73.73
2018-07-22T23:17:31.437Z,73.77
2018-07-22T23:19:59.728Z,74.09
2018-07-22T23:22:27.997Z,73.73
2018-07-22T23:24:56.266Z,74.46
2018-07-22T23:27:24.543Z,74.79
2018-07-22T23:29:52.791Z,75.48
2018-07-22T23:32:21.063Z,74.88
2018-07-22T23:34:50.377Z,75.86
2018-07-22T23:37:18.666Z,76.00
2018-07-22T23:39:46.924Z,76.32
2018-07-22T23:42:15.193Z,75.98
2018-07-22T23:44:43.446Z,75.80
2018-07-22T23:47:11.725Z,75.13
2018-07-22T23:49:39.972Z,75.13
2018-07-22T23:52:08.267Z,75.62
2018-07-22T23:54:36.522Z,75.62
2018-07-22T23:57:04.929Z,75.49
2018-07-22T23:59:33.185Z,75.82
